createdAt,value
2022-11-26T00:01:59.377Z,10.43
2022-11-26T00:04:26.155Z,15.77
2022-11-26T00:06:52.910Z,14.57
2022-11-26T00:09:24.881Z,12.07
2022-11-26T00:11:51.622Z,14.20
2022-11-26T00:14:18.391Z,14.60
2022-11-26T00:16:45.230Z,13.10
2022-11-26T00:19:12.192Z,17.23
2022-11-26T00:21:41.033Z,15.87
2022-11-26T00:24:25.450Z,12.97
2022-11-26T00:26:52.365Z,12.70
2022-11-26T00:29:19.165Z,13.65
2022-11-26T00:31:45.949Z,12.65
2022-11-26T00:34:12.841Z,20.43
2022-11-26T00:36:39.626Z,18.03
2022-11-26T00:39:18.327Z,12.93
2022-11-26T00:41:49.916Z,14.47
2022-11-26T00:44:25.107Z,15.40
2022-11-26T00:46:52.369Z,9.50
2022-11-26T00:49:20.869Z,15.10
2022-11-26T00:51:47.961Z,14.03
2022-11-26T00:54:17.613Z,14.73
2022-11-26T00:56:44.577Z,10.02
2022-11-26T00:59:17.592Z,9.17
2022-11-26T01:01:44.347Z,7.00
2022-11-26T01:04:11.353Z,10.20
2022-11-26T01:06:41.749Z,10.82
2022-11-26T01:09:20.024Z,11.30
2022-11-26T01:11:52.295Z,8.02
2022-11-26T01:14:21.641Z,8.40
2022-11-26T01:16:48.975Z,8.02
2022-11-26T01:19:16.551Z,9.10
2022-11-26T01:21:43.705Z,7.57
2022-11-26T01:24:10.468Z,10.63
2022-11-26T01:26:40.144Z,12.30
2022-11-26T01:29:07.135Z,6.22
2022-11-26T01:31:34.451Z,9.47
2022-11-26T01:34:01.366Z,10.10
2022-11-26T01:36:36.763Z,10.82
2022-11-26T01:39:07.717Z,5.43
2022-11-26T01:41:49.373Z,8.48
2022-11-26T01:44:17.734Z,5.25
2022-11-26T01:46:45.087Z,16.00
2022-11-26T01:49:23.820Z,9.68
2022-11-26T01:52:15.274Z,9.03
2022-11-26T01:54:43.847Z,7.47
2022-11-26T01:57:12.755Z,16.08
2022-11-26T01:59:42.593Z,23.40
2022-11-26T02:02:09.964Z,17.23
2022-11-26T02:04:46.781Z,15.43
2022-11-26T02:07:13.710Z,24.20
2022-11-26T02:09:40.919Z,27.67
2022-11-26T02:12:07.705Z,21.50
2022-11-26T02:14:39.465Z,17.90
2022-11-26T02:17:29.650Z,19.37
2022-11-26T02:20:21.242Z,23.23
2022-11-26T02:23:09.478Z,16.67
2022-11-26T02:25:45.148Z,18.80
2022-11-26T02:28:32.112Z,13.53
2022-11-26T02:31:19.129Z,18.13
2022-11-26T02:34:00.581Z,15.80
2022-11-26T02:36:37.120Z,15.07
2022-11-26T02:39:18.979Z,20.60
2022-11-26T02:41:50.458Z,19.10
2022-11-26T02:44:21.828Z,16.07
2022-11-26T02:46:51.027Z,17.40
2022-11-26T02:49:21.364Z,14.60
2022-11-26T02:51:53.556Z,15.23
2022-11-26T02:54:21.861Z,18.70
2022-11-26T02:56:50.393Z,21.80
2022-11-26T02:59:17.502Z,15.20
2022-11-26T03:01:54.337Z,19.70
2022-11-26T03:04:29.279Z,15.67
2022-11-26T03:06:58.201Z,16.90
2022-11-26T03:09:24.954Z,9.90
2022-11-26T03:11:51.823Z,10.77
2022-11-26T03:14:18.707Z,14.57
2022-11-26T03:16:45.506Z,23.03
2022-11-26T03:19:12.289Z,10.73
2022-11-26T03:21:38.999Z,11.93
2022-11-26T03:24:05.939Z,11.97
2022-11-26T03:26:32.663Z,11.33
2022-11-26T03:28:59.410Z,12.70
2022-11-26T03:31:26.207Z,10.20
2022-11-26T03:33:52.932Z,10.83
2022-11-26T03:36:20.039Z,7.33
2022-11-26T03:38:46.853Z,10.43
2022-11-26T03:41:13.668Z,6.43
2022-11-26T03:43:40.421Z,8.67
2022-11-26T03:46:07.206Z,11.40
2022-11-26T03:48:34.087Z,16.83
2022-11-26T03:51:00.793Z,15.17
2022-11-26T03:53:27.742Z,20.67
2022-11-26T03:55:54.471Z,18.13
2022-11-26T03:58:21.365Z,9.67
2022-11-26T04:00:48.147Z,12.03
2022-11-26T04:03:14.971Z,17.03
2022-11-26T04:05:41.750Z,13.67
2022-11-26T04:08:08.541Z,21.20
2022-11-26T04:10:35.373Z,20.13
2022-11-26T04:13:02.111Z,21.07
2022-11-26T04:15:28.846Z,25.67
2022-11-26T04:17:55.569Z,18.63
2022-11-26T04:20:22.351Z,14.03
2022-11-26T04:22:49.113Z,18.77
2022-11-26T04:25:15.875Z,18.20
2022-11-26T04:27:42.583Z,24.50
2022-11-26T04:30:09.885Z,16.83
2022-11-26T04:32:39.827Z,21.33
2022-11-26T04:35:08.055Z,12.83
2022-11-26T04:37:35.013Z,19.40
2022-11-26T04:40:01.989Z,16.63
2022-11-26T04:42:28.702Z,32.70
2022-11-26T04:44:55.415Z,17.73
2022-11-26T04:47:22.170Z,16.80
2022-11-26T04:49:48.945Z,15.13
2022-11-26T04:52:15.701Z,17.27
2022-11-26T04:54:42.558Z,21.43
2022-11-26T04:57:09.294Z,15.90
2022-11-26T04:59:35.996Z,17.43
2022-11-26T05:02:02.777Z,13.83
2022-11-26T05:04:29.862Z,17.40
2022-11-26T05:06:56.582Z,15.70
2022-11-26T05:09:23.297Z,16.90
2022-11-26T05:11:50.029Z,14.70
2022-11-26T05:14:16.794Z,20.90
2022-11-26T05:16:43.873Z,15.53
2022-11-26T05:19:10.659Z,18.20
2022-11-26T05:21:37.445Z,22.47
2022-11-26T05:24:04.435Z,23.30
2022-11-26T05:26:31.213Z,19.80
2022-11-26T05:28:57.910Z,14.27
2022-11-26T05:31:24.715Z,15.13
2022-11-26T05:33:51.471Z,17.67
2022-11-26T05:36:18.243Z,13.73
2022-11-26T05:38:44.953Z,15.97
2022-11-26T05:41:11.761Z,18.07
2022-11-26T05:43:38.506Z,15.43
2022-11-26T05:46:07.573Z,17.60
2022-11-26T05:48:34.544Z,21.03
2022-11-26T05:51:02.224Z,23.30
2022-11-26T05:53:30.404Z,20.43
2022-11-26T05:55:57.207Z,25.90
2022-11-26T05:58:24.002Z,20.20
2022-11-26T06:00:50.784Z,16.60
2022-11-26T06:03:20.251Z,18.23
2022-11-26T06:05:47.390Z,19.50
2022-11-26T06:08:14.203Z,16.77
2022-11-26T06:10:44.617Z,17.80
2022-11-26T06:13:11.388Z,21.40
2022-11-26T06:15:38.114Z,19.90
2022-11-26T06:18:04.928Z,16.27
2022-11-26T06:20:31.694Z,23.87
2022-11-26T06:22:58.401Z,14.40
2022-11-26T06:25:25.199Z,17.10
2022-11-26T06:27:52.216Z,13.07
2022-11-26T06:30:19.469Z,19.83
2022-11-26T06:32:46.298Z,25.27
2022-11-26T06:35:13.142Z,19.53
2022-11-26T06:37:40.253Z,15.87
2022-11-26T06:40:08.225Z,16.03
2022-11-26T06:42:35.137Z,11.30
2022-11-26T06:45:01.906Z,10.27
2022-11-26T06:47:28.661Z,12.43
2022-11-26T06:49:55.378Z,13.03
2022-11-26T06:52:22.133Z,12.80
2022-11-26T06:54:49.731Z,13.60
2022-11-26T06:57:16.507Z,16.67
2022-11-26T06:59:43.229Z,14.93
2022-11-26T07:02:10.493Z,15.30
2022-11-26T07:04:37.574Z,14.23
2022-11-26T07:07:04.700Z,11.93
2022-11-26T07:09:31.512Z,13.50
2022-11-26T07:11:58.830Z,19.23
2022-11-26T07:14:25.671Z,16.80
2022-11-26T07:16:52.579Z,12.07
2022-11-26T07:19:19.260Z,16.27
2022-11-26T07:21:45.977Z,12.93
2022-11-26T07:24:12.926Z,12.83
2022-11-26T07:26:39.697Z,13.23
2022-11-26T07:29:06.498Z,13.97
2022-11-26T07:31:33.413Z,17.50
2022-11-26T07:34:00.186Z,19.77
2022-11-26T07:36:30.506Z,14.53
2022-11-26T07:39:02.094Z,15.73
2022-11-26T07:41:29.921Z,13.33
2022-11-26T07:43:56.971Z,13.63
2022-11-26T07:46:25.548Z,19.83
2022-11-26T07:48:52.675Z,21.00
2022-11-26T07:51:28.375Z,27.77
2022-11-26T07:53:56.498Z,17.77
2022-11-26T07:56:23.213Z,14.40
2022-11-26T07:58:50.019Z,18.37
2022-11-26T08:01:22.282Z,20.07
2022-11-26T08:03:51.081Z,15.60
2022-11-26T08:06:20.245Z,17.60
2022-11-26T08:08:47.741Z,16.00
2022-11-26T08:11:23.173Z,21.73
2022-11-26T08:13:54.356Z,25.50
2022-11-26T08:16:21.214Z,23.83
2022-11-26T08:18:48.048Z,24.47
2022-11-26T08:21:14.822Z,20.27
2022-11-26T08:23:41.587Z,23.63
2022-11-26T08:26:23.881Z,23.97
2022-11-26T08:28:52.508Z,29.10
2022-11-26T08:31:19.609Z,25.57
2022-11-26T08:33:46.879Z,31.20
2022-11-26T08:36:13.701Z,40.27
2022-11-26T08:38:40.609Z,33.70
2022-11-26T08:41:13.244Z,35.67
2022-11-26T08:44:05.252Z,34.20
2022-11-26T08:46:27.745Z,34.57
2022-11-26T08:48:58.134Z,26.90
2022-11-26T08:51:25.714Z,30.13
2022-11-26T08:53:53.143Z,24.03
2022-11-26T08:56:20.258Z,15.83
2022-11-26T08:58:49.146Z,17.17
2022-11-26T09:01:21.638Z,16.83
2022-11-26T09:03:50.527Z,16.80
2022-11-26T09:06:18.451Z,14.33
2022-11-26T09:09:03.792Z,20.43
2022-11-26T09:11:30.765Z,17.53
2022-11-26T09:13:58.274Z,15.97
2022-11-26T09:16:25.542Z,14.90
2022-11-26T09:18:53.218Z,16.03
2022-11-26T09:21:22.858Z,12.37
2022-11-26T09:23:49.751Z,13.80
2022-11-26T09:26:18.886Z,13.60
2022-11-26T09:28:45.611Z,14.67
2022-11-26T09:31:12.637Z,16.20
2022-11-26T09:33:39.505Z,9.90
2022-11-26T09:36:08.605Z,14.93
2022-11-26T09:38:36.121Z,11.87
2022-11-26T09:41:11.968Z,10.10
2022-11-26T09:43:55.147Z,9.50
2022-11-26T09:46:40.916Z,8.87
2022-11-26T09:49:18.307Z,9.50
2022-11-26T09:51:50.376Z,7.50
2022-11-26T09:54:23.727Z,17.40
2022-11-26T09:56:54.606Z,13.10
2022-11-26T09:59:22.768Z,6.47
2022-11-26T10:01:49.546Z,12.60
2022-11-26T10:04:33.213Z,8.13
2022-11-26T10:07:47.001Z,8.33
2022-11-26T10:10:20.915Z,15.70
2022-11-26T10:13:20.796Z,7.60
2022-11-26T10:16:19.868Z,10.77
2022-11-26T10:19:12.814Z,14.27
2022-11-26T10:21:59.281Z,11.67
2022-11-26T10:24:34.776Z,10.77
2022-11-26T10:27:10.109Z,11.87
2022-11-26T10:29:45.313Z,13.20
2022-11-26T10:32:16.518Z,11.73
2022-11-26T10:34:50.605Z,9.17
2022-11-26T10:37:19.165Z,5.67
2022-11-26T10:39:45.988Z,6.27
2022-11-26T10:42:21.776Z,6.23
2022-11-26T10:44:52.933Z,7.57
2022-11-26T10:47:24.235Z,6.57
2022-11-26T10:50:39.487Z,4.47
2022-11-26T10:53:06.358Z,11.47
2022-11-26T10:55:39.531Z,13.10
2022-11-26T10:58:15.186Z,7.47
2022-11-26T11:00:59.523Z,13.50
2022-11-26T11:04:13.070Z,9.13
2022-11-26T11:06:43.841Z,100.17
2022-11-26T11:09:25.688Z,7.67
2022-11-26T11:12:12.633Z,10.00
2022-11-26T11:14:43.069Z,21.23
2022-11-26T11:17:23.336Z,9.80
2022-11-26T11:19:50.117Z,7.50
2022-11-26T11:22:23.565Z,4.80
2022-11-26T11:24:50.587Z,5.60
2022-11-26T11:27:35.813Z,9.00
2022-11-26T11:30:02.901Z,6.60
2022-11-26T11:32:40.265Z,9.87
2022-11-26T11:35:22.576Z,8.30
2022-11-26T11:37:59.441Z,5.40
2022-11-26T11:40:30.393Z,7.53
2022-11-26T11:43:00.304Z,4.77
2022-11-26T11:45:36.679Z,12.40
2022-11-26T11:48:15.368Z,10.10
2022-11-26T11:50:56.892Z,6.63
2022-11-26T11:53:26.365Z,8.57
2022-11-26T11:56:29.926Z,5.97
2022-11-26T11:59:47.562Z,6.93
2022-11-26T12:02:32.143Z,8.47
2022-11-26T12:05:36.211Z,10.07
2022-11-26T12:08:41.164Z,4.90
2022-11-26T12:11:26.092Z,9.40
2022-11-26T12:14:06.026Z,7.30
2022-11-26T12:16:40.465Z,6.33
2022-11-26T12:19:18.921Z,5.63
2022-11-26T12:22:02.113Z,11.83
2022-11-26T12:24:54.849Z,7.60
2022-11-26T12:27:50.288Z,7.90
2022-11-26T12:30:21.113Z,4.87
2022-11-26T12:32:51.764Z,10.03
2022-11-26T12:35:25.338Z,7.87
2022-11-26T12:37:59.215Z,10.53
2022-11-26T12:40:35.646Z,6.83
2022-11-26T12:43:31.289Z,3.60
2022-11-26T12:46:11.061Z,5.63
2022-11-26T12:48:49.021Z,5.80
2022-11-26T12:51:29.639Z,3.73
2022-11-26T12:54:09.910Z,4.33
2022-11-26T12:56:59.958Z,7.97
2022-11-26T12:59:38.668Z,8.77
2022-11-26T13:02:26.124Z,4.07
2022-11-26T13:04:54.091Z,6.80
2022-11-26T13:07:42.718Z,9.70
2022-11-26T13:10:28.150Z,4.43
2022-11-26T13:12:54.916Z,5.13
2022-11-26T13:15:33.295Z,8.70
2022-11-26T13:18:01.067Z,6.20
2022-11-26T13:20:42.857Z,6.10
2022-11-26T13:23:20.986Z,9.07
2022-11-26T13:26:15.700Z,10.57
2022-11-26T13:29:20.257Z,4.23
2022-11-26T13:32:32.881Z,4.80
2022-11-26T13:35:37.317Z,7.20
2022-11-26T13:38:30.955Z,5.10
2022-11-26T13:41:37.906Z,10.70
2022-11-26T13:44:16.670Z,4.27
2022-11-26T13:47:13.439Z,7.97
2022-11-26T13:49:47.814Z,8.10
2022-11-26T13:52:14.545Z,5.10
2022-11-26T13:54:55.803Z,8.40
2022-11-26T13:57:26.785Z,6.27
2022-11-26T13:59:56.137Z,4.47
2022-11-26T14:02:35.356Z,5.50
2022-11-26T14:05:05.331Z,11.53
2022-11-26T14:07:32.387Z,4.07
2022-11-26T14:10:01.216Z,4.20
2022-11-26T14:13:03.596Z,7.40
2022-11-26T14:15:42.091Z,6.73
2022-11-26T14:18:09.932Z,5.17
2022-11-26T14:21:01.648Z,10.07
2022-11-26T14:23:48.662Z,10.23
2022-11-26T14:26:18.392Z,46.13
2022-11-26T14:28:45.360Z,38.33
2022-11-26T14:31:28.281Z,8.20
2022-11-26T14:33:58.521Z,4.90
2022-11-26T14:36:27.696Z,3.27
2022-11-26T14:39:05.811Z,5.20
2022-11-26T14:41:41.971Z,8.83
2022-11-26T14:44:19.190Z,5.43
2022-11-26T14:46:49.074Z,3.37
2022-11-26T14:49:34.662Z,6.50
2022-11-26T14:52:23.319Z,4.63
2022-11-26T14:54:53.568Z,8.03
2022-11-26T14:57:27.286Z,7.13
2022-11-26T15:00:04.579Z,5.73
2022-11-26T15:02:32.111Z,8.13
2022-11-26T15:05:04.634Z,4.00
2022-11-26T15:07:32.075Z,11.20
2022-11-26T15:10:22.206Z,8.90
2022-11-26T15:12:51.625Z,5.63
2022-11-26T15:15:21.216Z,8.23
2022-11-26T15:17:53.395Z,6.03
2022-11-26T15:20:21.088Z,5.53
2022-11-26T15:22:57.316Z,8.33
2022-11-26T15:25:25.991Z,14.57
2022-11-26T15:28:04.203Z,12.63
2022-11-26T15:30:36.910Z,13.70
2022-11-26T15:33:10.868Z,10.73
2022-11-26T15:35:39.879Z,18.83
2022-11-26T15:38:17.868Z,11.97
2022-11-26T15:40:44.616Z,9.30
2022-11-26T15:43:44.637Z,10.03
2022-11-26T15:46:14.213Z,7.57
2022-11-26T15:48:52.116Z,7.33
2022-11-26T15:51:35.775Z,5.93
2022-11-26T15:54:05.578Z,10.13
2022-11-26T15:56:38.032Z,5.53
2022-11-26T15:59:13.450Z,11.73
2022-11-26T16:01:44.733Z,15.73
2022-11-26T16:04:33.086Z,13.23
2022-11-26T16:07:20.148Z,10.63
2022-11-26T16:09:48.134Z,11.97
2022-11-26T16:12:27.385Z,12.60
2022-11-26T16:15:18.696Z,13.53
2022-11-26T16:17:46.981Z,10.50
2022-11-26T16:20:21.488Z,10.20
2022-11-26T16:22:50.948Z,11.70
2022-11-26T16:25:27.052Z,17.73
2022-11-26T16:28:11.990Z,14.10
2022-11-26T16:30:41.237Z,13.77
2022-11-26T16:33:08.145Z,12.00
2022-11-26T16:35:50.688Z,7.37
2022-11-26T16:38:22.175Z,8.43
2022-11-26T16:40:49.661Z,6.20
2022-11-26T16:43:16.403Z,8.93
2022-11-26T16:45:43.626Z,10.40
2022-11-26T16:48:16.121Z,6.83
2022-11-26T16:50:42.869Z,7.23
2022-11-26T16:53:09.897Z,7.10
2022-11-26T16:55:36.927Z,5.20
2022-11-26T16:58:05.480Z,5.60
2022-11-26T17:00:33.390Z,6.60
2022-11-26T17:03:00.307Z,6.07
2022-11-26T17:05:27.160Z,12.30
2022-11-26T17:07:57.484Z,6.70
2022-11-26T17:10:26.481Z,6.93
2022-11-26T17:12:53.238Z,7.43
2022-11-26T17:15:20.065Z,7.53
2022-11-26T17:17:46.813Z,7.43
2022-11-26T17:20:25.574Z,12.67
2022-11-26T17:22:53.014Z,8.27
2022-11-26T17:25:20.331Z,9.60
2022-11-26T17:27:48.028Z,18.73
2022-11-26T17:30:21.093Z,22.97
2022-11-26T17:32:47.924Z,18.13
2022-11-26T17:35:15.107Z,20.33
2022-11-26T17:37:41.848Z,57.20
2022-11-26T17:40:20.559Z,79.60
2022-11-26T17:42:47.910Z,60.50
2022-11-26T17:45:15.560Z,65.97
2022-11-26T17:47:43.419Z,52.17
2022-11-26T17:50:20.840Z,33.50
2022-11-26T17:52:48.727Z,27.95
2022-11-26T17:55:16.434Z,12.40
2022-11-26T17:57:43.482Z,16.03
2022-11-26T18:00:17.339Z,68.00
2022-11-26T18:02:46.219Z,30.30
2022-11-26T18:05:13.471Z,26.60
2022-11-26T18:07:40.544Z,30.88
2022-11-26T18:10:12.735Z,28.52
2022-11-26T18:12:40.262Z,30.77
2022-11-26T18:15:07.642Z,23.40
2022-11-26T18:17:34.525Z,32.80
2022-11-26T18:20:01.494Z,40.88
2022-11-26T18:22:28.520Z,29.15
2022-11-26T18:24:57.206Z,29.95
2022-11-26T18:27:30.545Z,26.48
2022-11-26T18:29:57.336Z,46.55
2022-11-26T18:32:24.129Z,62.70
2022-11-26T18:34:51.238Z,66.03
2022-11-26T18:37:18.494Z,85.43
2022-11-26T18:39:45.402Z,85.63
2022-11-26T18:45:00.316Z,18.80
2022-11-26T18:47:27.103Z,20.00
2022-11-26T18:49:53.910Z,16.02
2022-11-26T18:52:20.632Z,15.32
2022-11-26T18:54:47.479Z,16.55
2022-11-26T18:57:14.229Z,26.70
2022-11-26T18:59:41.083Z,22.77
2022-11-26T19:02:10.272Z,31.40
2022-11-26T19:04:37.102Z,26.05
2022-11-26T19:07:03.889Z,22.45
2022-11-26T19:09:30.631Z,25.77
2022-11-26T19:11:58.315Z,26.00
2022-11-26T19:14:25.129Z,23.25
2022-11-26T19:16:52.073Z,22.88
2022-11-26T19:19:19.059Z,16.25
2022-11-26T19:21:45.834Z,13.55
2022-11-26T19:24:12.933Z,15.63
2022-11-26T19:26:41.263Z,18.90
2022-11-26T19:29:09.300Z,13.50
2022-11-26T19:31:38.901Z,12.45
2022-11-26T19:34:08.964Z,14.25
2022-11-26T19:36:37.307Z,11.32
2022-11-26T19:39:05.303Z,11.55
2022-11-26T19:41:32.682Z,13.50
2022-11-26T19:44:05.316Z,13.38
2022-11-26T19:46:35.246Z,13.63
2022-11-26T19:49:02.014Z,12.05
2022-11-26T19:51:28.858Z,11.77
2022-11-26T19:53:56.483Z,13.38
2022-11-26T19:56:33.899Z,15.38
2022-11-26T19:59:02.127Z,13.52
2022-11-26T20:01:34.401Z,14.23
2022-11-26T20:04:04.272Z,11.35
2022-11-26T20:06:33.280Z,22.15
2022-11-26T20:09:00.294Z,10.85
2022-11-26T20:11:28.750Z,10.93
2022-11-26T20:13:56.813Z,15.15
2022-11-26T20:16:29.384Z,14.52
2022-11-26T20:18:56.989Z,15.10
2022-11-26T20:21:26.144Z,22.60
2022-11-26T20:23:54.282Z,19.88
2022-11-26T20:26:30.845Z,21.40
2022-11-26T20:29:11.885Z,15.25
2022-11-26T20:31:49.901Z,17.20
2022-11-26T20:34:19.155Z,16.98
2022-11-26T20:36:46.193Z,22.08
2022-11-26T20:39:15.449Z,20.77
2022-11-26T20:41:42.733Z,21.98
2022-11-26T20:44:10.486Z,23.77
2022-11-26T20:46:37.595Z,27.35
2022-11-26T20:49:05.853Z,30.65
2022-11-26T20:51:33.243Z,27.42
2022-11-26T20:54:01.478Z,25.60
2022-11-26T20:56:28.929Z,30.80
2022-11-26T20:58:56.022Z,38.03
2022-11-26T21:01:28.365Z,32.85
2022-11-26T21:03:56.214Z,29.95
2022-11-26T21:06:30.434Z,25.42
2022-11-26T21:09:02.719Z,28.60
2022-11-26T21:11:30.379Z,35.25
2022-11-26T21:13:58.832Z,29.60
2022-11-26T21:16:26.047Z,27.88
2022-11-26T21:18:54.576Z,25.48
2022-11-26T21:21:22.274Z,22.70
2022-11-26T21:23:49.082Z,23.90
2022-11-26T21:26:18.999Z,25.38
2022-11-26T21:28:50.041Z,27.77
2022-11-26T21:31:18.413Z,29.40
2022-11-26T21:33:46.476Z,45.47
2022-11-26T21:36:16.677Z,30.65
2022-11-26T21:38:47.129Z,29.75
2022-11-26T21:41:15.506Z,20.60
2022-11-26T21:43:43.927Z,19.05
2022-11-26T21:46:16.018Z,20.60
2022-11-26T21:48:43.151Z,23.92
2022-11-26T21:51:12.438Z,17.55
2022-11-26T21:53:39.696Z,21.55
2022-11-26T21:56:13.893Z,26.67
2022-11-26T21:58:40.947Z,40.15
2022-11-26T22:01:16.434Z,24.58
2022-11-26T22:03:44.889Z,24.85
2022-11-26T22:06:15.625Z,22.70
2022-11-26T22:08:42.805Z,20.73
2022-11-26T22:11:12.370Z,24.17
2022-11-26T22:13:40.251Z,21.63
2022-11-26T22:16:08.380Z,22.15
2022-11-26T22:18:39.733Z,20.67
2022-11-26T22:21:16.017Z,27.23
2022-11-26T22:23:42.943Z,27.55
2022-11-26T22:26:09.800Z,22.77
2022-11-26T22:28:38.619Z,33.50
2022-11-26T22:31:26.865Z,30.33
2022-11-26T22:33:55.817Z,23.40
2022-11-26T22:36:23.362Z,24.35
2022-11-26T22:38:50.284Z,29.73
2022-11-26T22:41:17.083Z,23.77
2022-11-26T22:43:44.407Z,22.23
2022-11-26T22:46:14.338Z,29.08
2022-11-26T22:48:42.144Z,24.88
2022-11-26T22:51:10.015Z,26.80
2022-11-26T22:53:37.318Z,29.15
2022-11-26T22:56:04.924Z,26.90
2022-11-26T22:58:34.078Z,26.02
2022-11-26T23:01:06.922Z,28.98
2022-11-26T23:03:37.148Z,23.83
2022-11-26T23:06:09.297Z,22.20
2022-11-26T23:08:37.162Z,40.22
2022-11-26T23:11:13.449Z,25.48
2022-11-26T23:13:42.032Z,26.52
2022-11-26T23:16:09.421Z,17.67
2022-11-26T23:18:37.306Z,18.48
2022-11-26T23:21:08.529Z,20.17
2022-11-26T23:23:37.348Z,17.58
2022-11-26T23:26:05.024Z,21.00
2022-11-26T23:28:33.302Z,21.60
2022-11-26T23:31:04.993Z,20.10
2022-11-26T23:33:32.173Z,17.90
2022-11-26T23:35:59.279Z,24.00
2022-11-26T23:38:26.078Z,16.13
2022-11-26T23:41:03.529Z,21.52
2022-11-26T23:43:31.883Z,23.50
2022-11-26T23:46:29.239Z,21.75
2022-11-26T23:48:56.500Z,20.20
2022-11-26T23:51:29.288Z,20.75
2022-11-26T23:53:56.311Z,25.48
2022-11-26T23:56:33.815Z,27.80
2022-11-26T23:59:03.963Z,19.73
